Time;durP1;ratioP1;P1;durP2;ratioP2;P2;SDS_P1;SDS_P2;PMS_P1;PMS_P2;Temp;Humidity;BMP_temperature;BMP_pressure;BME280_temperature;BME280_humidity;BME280_pressure;Samples;Min_cycle;Max_cycle;Signal;HPM_P1;HPM_P2
2022/09/18 00:00:00;;;;;;;;;;;11.50;99.90;;;;;;5072638;28;19950;-66
2022/09/18 00:02:26;;;;;;;;;;;11.40;99.90;;;;;;5072152;28;20230;-67
2022/09/18 00:04:52;;;;;;;;;;;11.50;99.90;;;;;;5072051;28;20277;-69
2022/09/18 00:07:18;;;;;;;;;;;11.70;99.90;;;;;;5072656;28;20512;-68
2022/09/18 00:09:43;;;;;;;;;;;11.60;99.90;;;;;;5074775;28;19928;-71
2022/09/18 00:12:09;;;;;;;;;;;11.60;99.90;;;;;;5076526;28;20054;-68
2022/09/18 00:14:35;;;;;;;;;;;11.80;99.90;;;;;;5075159;28;20364;-68
2022/09/18 00:17:01;;;;;;;;;;;11.90;99.90;;;;;;5075955;28;19920;-69
2022/09/18 00:19:27;;;;;;;;;;;12.00;99.90;;;;;;5078333;28;19923;-67
2022/09/18 00:21:53;;;;;;;;;;;12.00;99.90;;;;;;5077067;28;19985;-69
2022/09/18 00:24:19;;;;;;;;;;;12.10;99.90;;;;;;5076957;28;19930;-67
2022/09/18 00:26:45;;;;;;;;;;;12.00;99.90;;;;;;5076208;28;19965;-68
2022/09/18 00:29:11;;;;;;;;;;;11.90;99.90;;;;;;5076224;28;20279;-67
2022/09/18 00:31:37;;;;;;;;;;;11.90;99.90;;;;;;5076303;28;19924;-68
2022/09/18 00:34:04;;;;;;;;;;;11.80;99.90;;;;;;5076249;28;19931;-70
2022/09/18 00:36:30;;;;;;;;;;;11.70;99.90;;;;;;5075564;28;20299;-69
2022/09/18 00:38:58;;;;;;;;;;;11.60;99.90;;;;;;5075748;28;19930;-70
2022/09/18 00:41:33;;;;;;;;;;;11.70;99.90;;;;;;5075496;28;20203;-68
2022/09/18 00:44:17;;;;;;;;;;;11.70;99.90;;;;;;5085247;28;20030;-67
2022/09/18 00:46:43;;;;;;;;;;;11.80;99.90;;;;;;5075257;28;19932;-68
2022/09/18 00:49:09;;;;;;;;;;;11.80;99.90;;;;;;5075630;28;20360;-68
2022/09/18 00:51:35;;;;;;;;;;;11.70;99.90;;;;;;5075741;28;20312;-70
2022/09/18 00:54:15;;;;;;;;;;;11.60;99.90;;;;;;5075005;28;19919;-68
2022/09/18 00:56:41;;;;;;;;;;;11.50;99.90;;;;;;5072954;28;19951;-67
2022/09/18 00:59:08;;;;;;;;;;;11.40;99.90;;;;;;5073451;28;19924;-69
2022/09/18 01:01:33;;;;;;;;;;;11.40;99.90;;;;;;5085171;28;20093;-68
2022/09/18 01:03:59;;;;;;;;;;;11.40;99.90;;;;;;5092396;28;19982;-67
2022/09/18 01:06:30;;;;;;;;;;;11.60;99.90;;;;;;5091606;28;19980;-67
2022/09/18 01:09:11;;;;;;;;;;;11.60;99.90;;;;;;5092293;28;19934;-67
2022/09/18 01:11:43;;;;;;;;;;;11.20;99.90;;;;;;5083252;28;20261;-68
2022/09/18 01:14:44;;;;;;;;;;;10.90;99.90;;;;;;5091939;28;19930;-70
2022/09/18 01:17:12;;;;;;;;;;;10.60;99.90;;;;;;5047649;28;19920;-68
2022/09/18 01:19:47;;;;;;;;;;;10.70;99.90;;;;;;5083242;28;20419;-67
2022/09/18 01:22:18;;;;;;;;;;;10.70;99.90;;;;;;5071359;28;20343;-69
2022/09/18 01:25:07;;;;;;;;;;;10.50;99.90;;;;;;5072922;28;19990;-67
2022/09/18 01:27:37;;;;;;;;;;;10.40;99.90;;;;;;5033508;28;19924;-70
2022/09/18 01:30:05;;;;;;;;;;;10.20;99.90;;;;;;5072098;28;19923;-66
2022/09/18 01:32:34;;;;;;;;;;;10.20;99.90;;;;;;5071539;28;19924;-69
2022/09/18 01:35:02;;;;;;;;;;;10.00;99.90;;;;;;5071998;28;20230;-67
2022/09/18 01:37:40;;;;;;;;;;;10.00;99.90;;;;;;5070527;28;20431;-66
2022/09/18 01:40:06;;;;;;;;;;;10.20;99.90;;;;;;5071905;28;19934;-67
2022/09/18 01:42:33;;;;;;;;;;;10.10;99.90;;;;;;5072567;28;19955;-68
2022/09/18 01:45:00;;;;;;;;;;;10.00;99.90;;;;;;5072646;28;19924;-67
2022/09/18 01:47:27;;;;;;;;;;;10.00;99.90;;;;;;5072640;28;19938;-67
2022/09/18 01:49:54;;;;;;;;;;;10.00;99.90;;;;;;5072524;28;20245;-68
2022/09/18 01:52:32;;;;;;;;;;;10.00;99.90;;;;;;5082194;28;19927;-67
2022/09/18 01:55:00;;;;;;;;;;;10.00;99.90;;;;;;5091774;28;19923;-67
2022/09/18 01:57:36;;;;;;;;;;;9.90;99.90;;;;;;5090846;28;19920;-68
2022/09/18 02:00:06;;;;;;;;;;;10.10;99.90;;;;;;5090331;28;19923;-68
2022/09/18 02:02:35;;;;;;;;;;;10.10;99.90;;;;;;5091218;28;20465;-69
2022/09/18 02:05:03;;;;;;;;;;;10.00;99.90;;;;;;5078035;28;20379;-67
2022/09/18 02:07:38;;;;;;;;;;;10.00;99.90;;;;;;5070530;28;20569;-67
2022/09/18 02:10:04;;;;;;;;;;;10.10;99.90;;;;;;5071066;28;19985;-69
2022/09/18 02:12:31;;;;;;;;;;;10.20;99.90;;;;;;5071117;28;20356;-68
2022/09/18 02:14:59;;;;;;;;;;;10.30;99.90;;;;;;5070964;28;20482;-70
2022/09/18 02:17:30;;;;;;;;;;;10.30;99.90;;;;;;5071606;28;20001;-67
2022/09/18 02:20:02;;;;;;;;;;;10.40;99.90;;;;;;5071236;28;19934;-67
2022/09/18 02:22:30;;;;;;;;;;;10.40;99.90;;;;;;5075915;28;19924;-68
2022/09/18 02:24:58;;;;;;;;;;;10.40;99.90;;;;;;5090319;28;19950;-69
2022/09/18 02:27:25;;;;;;;;;;;10.60;99.90;;;;;;5090383;28;19924;-67
2022/09/18 02:29:50;;;;;;;;;;;10.30;99.90;;;;;;5089863;28;19970;-66
2022/09/18 02:32:16;;;;;;;;;;;10.40;99.90;;;;;;5082418;28;20020;-68
2022/09/18 02:34:41;;;;;;;;;;;10.40;99.90;;;;;;5070990;28;19928;-67
2022/09/18 02:37:25;;;;;;;;;;;10.40;99.90;;;;;;5070963;28;20479;-70
2022/09/18 02:40:17;;;;;;;;;;;10.50;99.90;;;;;;5071413;28;19980;-66
2022/09/18 02:42:48;;;;;;;;;;;10.60;99.90;;;;;;5046023;28;20489;-66
2022/09/18 02:45:22;;;;;;;;;;;10.50;99.90;;;;;;5070796;28;20361;-68
2022/09/18 02:48:07;;;;;;;;;;;10.50;99.90;;;;;;5070928;28;19934;-68
2022/09/18 02:50:38;;;;;;;;;;;10.70;99.90;;;;;;5069455;28;19934;-67
2022/09/18 02:53:04;;;;;;;;;;;10.50;99.90;;;;;;5070505;28;19920;-69
2022/09/18 02:55:50;;;;;;;;;;;10.50;99.90;;;;;;5069970;28;20459;-69
2022/09/18 02:58:28;;;;;;;;;;;10.50;99.90;;;;;;5070242;28;20003;-67
2022/09/18 03:00:54;;;;;;;;;;;10.50;99.90;;;;;;5069972;28;19930;-66
2022/09/18 03:03:24;;;;;;;;;;;10.60;99.90;;;;;;5073321;28;19923;-67
2022/09/18 03:05:50;;;;;;;;;;;10.50;99.90;;;;;;5093357;28;20238;-69
2022/09/18 03:08:17;;;;;;;;;;;10.50;99.90;;;;;;5091508;28;19920;-68
2022/09/18 03:10:42;;;;;;;;;;;10.50;99.90;;;;;;5092161;28;19924;-70
2022/09/18 03:13:08;;;;;;;;;;;10.60;99.90;;;;;;5091176;28;19923;-69
2022/09/18 03:15:33;;;;;;;;;;;10.50;99.90;;;;;;5091120;28;19970;-68
2022/09/18 03:17:59;;;;;;;;;;;10.40;99.90;;;;;;5090328;28;19955;-72
2022/09/18 03:20:24;;;;;;;;;;;10.40;99.90;;;;;;5089675;28;19924;-68
2022/09/18 03:22:50;;;;;;;;;;;10.30;99.90;;;;;;5089639;28;19924;-67
2022/09/18 03:25:16;;;;;;;;;;;10.30;99.90;;;;;;5090374;28;19923;-67
2022/09/18 03:27:41;;;;;;;;;;;10.30;99.90;;;;;;5090749;28;20014;-67
2022/09/18 03:30:07;;;;;;;;;;;10.40;99.90;;;;;;5089942;27;19972;-67
2022/09/18 03:32:33;;;;;;;;;;;10.20;99.90;;;;;;5088205;28;20246;-68
2022/09/18 03:34:59;;;;;;;;;;;10.20;99.90;;;;;;5088481;28;20142;-70
2022/09/18 03:37:24;;;;;;;;;;;10.20;99.90;;;;;;5090077;28;19923;-68
2022/09/18 03:39:50;;;;;;;;;;;10.10;99.90;;;;;;5088144;28;19923;-67
2022/09/18 03:42:15;;;;;;;;;;;10.20;99.90;;;;;;5089584;28;19920;-66
2022/09/18 03:44:41;;;;;;;;;;;10.30;99.90;;;;;;5091139;28;20395;-68
2022/09/18 03:47:08;;;;;;;;;;;10.20;99.90;;;;;;5093403;28;19920;-69
2022/09/18 03:49:34;;;;;;;;;;;10.30;99.90;;;;;;5088422;28;19985;-66
2022/09/18 03:51:59;;;;;;;;;;;10.40;99.90;;;;;;5093834;28;19928;-66
2022/09/18 03:54:25;;;;;;;;;;;10.40;99.90;;;;;;5088600;27;19920;-67
2022/09/18 03:56:51;;;;;;;;;;;10.40;99.90;;;;;;5072681;28;19978;-69
2022/09/18 03:59:16;;;;;;;;;;;10.40;99.90;;;;;;5073820;28;20375;-67
2022/09/18 04:01:42;;;;;;;;;;;10.60;99.90;;;;;;5072828;28;19923;-69
2022/09/18 04:04:07;;;;;;;;;;;10.50;99.90;;;;;;5073551;28;20230;-69
2022/09/18 04:06:33;;;;;;;;;;;10.50;99.90;;;;;;5074168;28;20119;-68
2022/09/18 04:08:58;;;;;;;;;;;10.60;99.90;;;;;;5073748;28;19924;-68
2022/09/18 04:11:24;;;;;;;;;;;10.90;99.90;;;;;;5093223;28;19920;-69
2022/09/18 04:13:49;;;;;;;;;;;10.90;99.90;;;;;;5092985;28;19930;-67
2022/09/18 04:16:15;;;;;;;;;;;11.10;99.90;;;;;;5091676;28;19923;-67
2022/09/18 04:18:40;;;;;;;;;;;11.10;99.90;;;;;;5093255;28;19964;-65
2022/09/18 04:21:06;;;;;;;;;;;11.20;99.90;;;;;;5093460;28;20402;-66
2022/09/18 04:23:32;;;;;;;;;;;11.10;99.90;;;;;;5093252;28;20018;-68
2022/09/18 04:25:57;;;;;;;;;;;11.10;99.90;;;;;;5091397;28;19927;-68
2022/09/18 04:28:23;;;;;;;;;;;11.30;99.90;;;;;;5091625;28;19923;-67
2022/09/18 04:30:48;;;;;;;;;;;11.40;99.90;;;;;;5092561;28;19923;-68
2022/09/18 04:33:14;;;;;;;;;;;11.40;99.90;;;;;;5093195;28;19930;-68
2022/09/18 04:35:40;;;;;;;;;;;11.20;99.90;;;;;;5093008;28;19920;-67
2022/09/18 04:38:07;;;;;;;;;;;11.20;99.90;;;;;;5093121;28;19929;-70
2022/09/18 04:40:33;;;;;;;;;;;10.90;99.90;;;;;;5092954;28;19924;-68
2022/09/18 04:42:59;;;;;;;;;;;11.00;99.90;;;;;;5092740;27;19923;-69
2022/09/18 04:45:25;;;;;;;;;;;11.00;99.90;;;;;;5090939;28;20418;-67
2022/09/18 04:47:50;;;;;;;;;;;10.90;99.90;;;;;;5092759;28;19923;-67
2022/09/18 04:50:16;;;;;;;;;;;10.90;99.90;;;;;;5091654;28;20377;-68
2022/09/18 04:52:42;;;;;;;;;;;10.90;99.90;;;;;;5093064;28;19923;-68
2022/09/18 04:55:08;;;;;;;;;;;10.80;99.90;;;;;;5091231;28;19930;-68
2022/09/18 04:57:33;;;;;;;;;;;10.60;99.90;;;;;;5092333;28;19923;-66
2022/09/18 04:59:59;;;;;;;;;;;10.70;99.90;;;;;;5088019;28;19924;-68
2022/09/18 05:02:24;;;;;;;;;;;10.50;99.90;;;;;;5072358;28;19935;-67
2022/09/18 05:04:50;;;;;;;;;;;10.50;99.90;;;;;;5072924;28;19974;-66
2022/09/18 05:07:16;;;;;;;;;;;10.30;99.90;;;;;;5074290;28;19982;-67
2022/09/18 05:09:41;;;;;;;;;;;10.30;99.90;;;;;;5074414;28;20269;-70
2022/09/18 05:12:08;;;;;;;;;;;10.20;99.90;;;;;;5074710;28;20360;-67
2022/09/18 05:14:34;;;;;;;;;;;10.40;99.90;;;;;;5077771;28;19986;-67
2022/09/18 05:17:00;;;;;;;;;;;10.20;99.90;;;;;;5073485;28;19924;-67
2022/09/18 05:19:26;;;;;;;;;;;10.30;99.90;;;;;;5073978;28;20034;-68
2022/09/18 05:21:52;;;;;;;;;;;10.30;99.90;;;;;;5073791;28;20390;-68
2022/09/18 05:24:17;;;;;;;;;;;10.40;99.90;;;;;;5073533;28;20441;-67
2022/09/18 05:26:47;;;;;;;;;;;10.50;99.90;;;;;;5088485;28;20396;-67
2022/09/18 05:29:12;;;;;;;;;;;10.70;99.90;;;;;;5083867;27;19935;-67
2022/09/18 05:31:38;;;;;;;;;;;10.80;99.90;;;;;;5071411;28;20379;-69
2022/09/18 05:34:04;;;;;;;;;;;10.70;99.90;;;;;;5074083;28;20146;-69
2022/09/18 05:36:29;;;;;;;;;;;10.80;99.90;;;;;;5074157;28;20309;-68
2022/09/18 05:38:55;;;;;;;;;;;10.70;99.90;;;;;;5074865;28;20397;-70
2022/09/18 05:41:21;;;;;;;;;;;10.50;99.90;;;;;;5074533;28;20002;-67
2022/09/18 05:43:46;;;;;;;;;;;10.60;99.90;;;;;;5074532;28;19923;-68
2022/09/18 05:46:13;;;;;;;;;;;10.40;99.90;;;;;;5074336;28;20032;-66
2022/09/18 05:48:39;;;;;;;;;;;10.50;99.90;;;;;;5074643;28;19940;-69
2022/09/18 05:51:04;;;;;;;;;;;10.40;99.90;;;;;;5074939;28;19924;-67
2022/09/18 05:53:30;;;;;;;;;;;10.40;99.90;;;;;;5080419;28;20409;-68
2022/09/18 05:55:57;;;;;;;;;;;10.30;99.90;;;;;;5092684;28;20741;-69
2022/09/18 05:58:23;;;;;;;;;;;10.20;99.90;;;;;;5093037;28;19962;-66
2022/09/18 06:00:50;;;;;;;;;;;10.30;99.90;;;;;;5093736;28;20639;-69
2022/09/18 06:03:16;;;;;;;;;;;10.40;99.90;;;;;;5094191;28;19920;-68
2022/09/18 06:05:42;;;;;;;;;;;10.40;99.90;;;;;;5094441;28;20344;-67
2022/09/18 06:08:08;;;;;;;;;;;10.20;99.90;;;;;;5093572;28;19974;-68
2022/09/18 06:10:38;;;;;;;;;;;10.50;99.90;;;;;;5093984;28;19924;-70
2022/09/18 06:13:14;;;;;;;;;;;10.50;99.90;;;;;;5093585;28;19975;-69
2022/09/18 06:15:44;;;;;;;;;;;10.50;99.90;;;;;;5093496;28;19923;-66
2022/09/18 06:18:11;;;;;;;;;;;10.40;99.90;;;;;;5094027;28;20030;-67
2022/09/18 06:20:37;;;;;;;;;;;10.60;99.90;;;;;;5093487;28;19926;-67
2022/09/18 06:23:03;;;;;;;;;;;10.40;99.90;;;;;;5091945;28;20213;-66
2022/09/18 06:25:29;;;;;;;;;;;10.70;99.90;;;;;;5074943;28;19958;-67
2022/09/18 06:27:57;;;;;;;;;;;10.50;99.90;;;;;;5085684;28;19931;-66
2022/09/18 06:30:23;;;;;;;;;;;10.70;99.90;;;;;;5073880;28;20399;-69
2022/09/18 06:32:49;;;;;;;;;;;10.80;99.90;;;;;;5080242;28;20405;-68
2022/09/18 06:35:15;;;;;;;;;;;10.80;99.90;;;;;;5091901;28;19930;-69
2022/09/18 06:37:40;;;;;;;;;;;10.60;99.90;;;;;;5093069;28;19923;-67
2022/09/18 06:40:06;;;;;;;;;;;10.60;99.90;;;;;;5082887;28;20400;-68
2022/09/18 06:42:31;;;;;;;;;;;10.60;99.90;;;;;;5073059;28;19930;-69
2022/09/18 06:44:57;;;;;;;;;;;10.50;99.90;;;;;;5090049;28;19992;-67
2022/09/18 06:47:23;;;;;;;;;;;10.50;99.90;;;;;;5092040;28;20358;-67
2022/09/18 06:49:48;;;;;;;;;;;10.50;99.90;;;;;;5091796;28;19924;-68
2022/09/18 06:52:14;;;;;;;;;;;10.50;99.90;;;;;;5073666;28;19924;-68
2022/09/18 06:54:39;;;;;;;;;;;10.50;99.90;;;;;;5073194;28;19923;-66
2022/09/18 06:57:06;;;;;;;;;;;10.70;99.90;;;;;;5072023;28;19978;-67
2022/09/18 06:59:31;;;;;;;;;;;10.60;99.90;;;;;;5074079;28;19928;-69
2022/09/18 07:01:57;;;;;;;;;;;10.60;99.90;;;;;;5075502;28;20356;-68
2022/09/18 07:04:22;;;;;;;;;;;10.90;99.90;;;;;;5075083;28;19927;-71
2022/09/18 07:06:48;;;;;;;;;;;10.90;99.90;;;;;;5074015;28;19923;-70
2022/09/18 07:09:13;;;;;;;;;;;11.10;99.90;;;;;;5072003;28;19931;-67
2022/09/18 07:11:39;;;;;;;;;;;11.00;99.90;;;;;;5073339;28;19923;-67
2022/09/18 07:14:06;;;;;;;;;;;11.00;99.90;;;;;;5073012;28;20639;-68
2022/09/18 07:16:31;;;;;;;;;;;11.00;99.90;;;;;;5073342;28;19920;-67
2022/09/18 07:18:57;;;;;;;;;;;10.90;99.90;;;;;;5071423;28;19949;-68
2022/09/18 07:21:23;;;;;;;;;;;11.10;99.90;;;;;;5055039;28;20465;-67
2022/09/18 07:23:48;;;;;;;;;;;10.90;99.90;;;;;;5071463;28;20395;-71
2022/09/18 07:26:14;;;;;;;;;;;10.80;99.90;;;;;;5071431;28;20032;-67
2022/09/18 07:28:39;;;;;;;;;;;10.70;99.90;;;;;;5072901;28;19931;-69
2022/09/18 07:31:05;;;;;;;;;;;10.60;99.90;;;;;;5072693;28;20411;-68
2022/09/18 07:33:31;;;;;;;;;;;10.50;99.90;;;;;;5073840;28;19920;-69
2022/09/18 07:36:00;;;;;;;;;;;10.20;99.90;;;;;;5072820;28;20390;-69
2022/09/18 07:38:26;;;;;;;;;;;10.50;99.90;;;;;;5075773;28;20286;-68
2022/09/18 07:40:51;;;;;;;;;;;10.50;99.90;;;;;;5055677;28;20138;-67
2022/09/18 07:43:17;;;;;;;;;;;10.50;99.90;;;;;;5073078;28;19927;-68
2022/09/18 07:45:43;;;;;;;;;;;10.20;99.90;;;;;;5071764;28;19928;-67
2022/09/18 07:48:08;;;;;;;;;;;10.30;99.90;;;;;;5071978;28;20030;-68
2022/09/18 07:50:34;;;;;;;;;;;10.30;99.90;;;;;;5073209;28;20386;-68
2022/09/18 07:53:04;;;;;;;;;;;10.40;99.90;;;;;;5072631;28;20314;-69
2022/09/18 07:55:30;;;;;;;;;;;10.40;99.90;;;;;;5072886;28;19920;-69
2022/09/18 07:57:57;;;;;;;;;;;10.40;99.90;;;;;;5072516;28;20409;-70
2022/09/18 08:00:23;;;;;;;;;;;10.60;99.90;;;;;;5073196;28;19923;-66
2022/09/18 08:02:49;;;;;;;;;;;10.50;99.90;;;;;;5084390;28;19931;-66
2022/09/18 08:05:14;;;;;;;;;;;10.50;99.90;;;;;;5093859;28;20611;-68
2022/09/18 08:07:40;;;;;;;;;;;10.70;99.90;;;;;;5092814;28;19953;-69
2022/09/18 08:10:07;;;;;;;;;;;10.40;99.90;;;;;;5092125;28;19946;-68
2022/09/18 08:12:33;;;;;;;;;;;10.60;99.90;;;;;;5092046;28;19928;-69
2022/09/18 08:14:58;;;;;;;;;;;10.80;99.90;;;;;;5092267;28;20004;-69
2022/09/18 08:17:24;;;;;;;;;;;10.70;99.90;;;;;;5091935;28;19923;-68
2022/09/18 08:19:50;;;;;;;;;;;10.80;99.90;;;;;;5092176;28;19923;-67
2022/09/18 08:22:15;;;;;;;;;;;10.80;99.90;;;;;;5084942;28;20057;-67
2022/09/18 08:24:41;;;;;;;;;;;11.00;99.90;;;;;;5054060;28;20540;-67
2022/09/18 08:27:07;;;;;;;;;;;10.80;99.90;;;;;;5071340;28;19975;-70
2022/09/18 08:29:32;;;;;;;;;;;11.00;99.90;;;;;;5071134;28;19924;-68
2022/09/18 08:31:58;;;;;;;;;;;11.20;99.90;;;;;;5075248;28;19924;-67
2022/09/18 08:34:23;;;;;;;;;;;11.00;99.90;;;;;;5075824;28;19924;-67
2022/09/18 08:36:49;;;;;;;;;;;11.30;99.90;;;;;;5075520;28;19926;-68
2022/09/18 08:39:15;;;;;;;;;;;11.10;99.90;;;;;;5078579;28;19931;-69
2022/09/18 08:41:52;;;;;;;;;;;11.10;99.90;;;;;;5078558;28;20387;-69
2022/09/18 08:44:23;;;;;;;;;;;11.30;99.90;;;;;;5078648;28;19924;-68
2022/09/18 08:47:00;;;;;;;;;;;11.00;99.90;;;;;;5078722;28;19927;-69
2022/09/18 08:49:31;;;;;;;;;;;11.20;99.90;;;;;;5078696;28;19924;-68
2022/09/18 08:52:02;;;;;;;;;;;11.20;99.90;;;;;;5078418;28;19965;-67
2022/09/18 08:54:32;;;;;;;;;;;10.90;99.90;;;;;;5078469;28;19963;-68
2022/09/18 08:57:10;;;;;;;;;;;11.00;99.90;;;;;;5078431;28;20481;-70
2022/09/18 08:59:39;;;;;;;;;;;11.20;99.90;;;;;;5077915;28;19972;-68
2022/09/18 09:02:23;;;;;;;;;;;11.20;99.90;;;;;;5077864;28;20023;-67
2022/09/18 09:04:50;;;;;;;;;;;11.20;99.90;;;;;;5076942;28;19977;-68
2022/09/18 09:07:27;;;;;;;;;;;11.30;99.90;;;;;;5077969;28;19923;-68
2022/09/18 09:10:00;;;;;;;;;;;11.40;99.90;;;;;;5076680;28;20294;-68
2022/09/18 09:12:40;;;;;;;;;;;11.60;99.90;;;;;;5076285;28;20477;-68
2022/09/18 09:15:17;;;;;;;;;;;11.70;99.90;;;;;;5075819;28;20015;-67
2022/09/18 09:17:45;;;;;;;;;;;11.90;99.90;;;;;;5074761;28;19985;-68
2022/09/18 09:20:20;;;;;;;;;;;11.70;99.90;;;;;;5075950;28;20045;-68
2022/09/18 09:22:45;;;;;;;;;;;12.10;99.90;;;;;;5077387;28;20349;-69
2022/09/18 09:25:11;;;;;;;;;;;12.10;99.90;;;;;;5097116;28;19923;-67
2022/09/18 09:27:39;;;;;;;;;;;12.10;99.90;;;;;;5093337;28;19923;-71
2022/09/18 09:30:11;;;;;;;;;;;12.20;99.90;;;;;;5096655;28;19923;-68
2022/09/18 09:32:39;;;;;;;;;;;12.40;99.90;;;;;;5093890;28;19923;-69
2022/09/18 09:35:17;;;;;;;;;;;12.60;99.90;;;;;;5095074;28;19924;-68
2022/09/18 09:37:44;;;;;;;;;;;12.60;99.90;;;;;;5095022;28;19923;-71
2022/09/18 09:40:15;;;;;;;;;;;12.70;99.90;;;;;;5094700;28;20105;-69
2022/09/18 09:43:00;;;;;;;;;;;12.70;99.90;;;;;;5092610;28;20018;-68
2022/09/18 09:45:27;;;;;;;;;;;13.00;99.90;;;;;;5093866;28;19928;-67
2022/09/18 09:47:59;;;;;;;;;;;12.90;99.90;;;;;;5093801;27;20402;-68
2022/09/18 09:50:34;;;;;;;;;;;13.20;99.90;;;;;;5092862;28;20299;-68
2022/09/18 09:53:01;;;;;;;;;;;13.30;99.90;;;;;;5093611;28;19923;-69
2022/09/18 09:55:30;;;;;;;;;;;13.40;99.90;;;;;;5094370;28;19948;-67
2022/09/18 09:58:15;;;;;;;;;;;13.60;99.90;;;;;;5092514;28;20363;-68
2022/09/18 10:00:47;;;;;;;;;;;13.60;99.90;;;;;;5074158;28;20010;-69
2022/09/18 10:03:15;;;;;;;;;;;13.70;99.90;;;;;;5075120;28;19928;-68
2022/09/18 10:05:43;;;;;;;;;;;13.90;99.90;;;;;;5074372;28;19923;-67
2022/09/18 10:08:18;;;;;;;;;;;13.90;99.90;;;;;;5074148;28;19993;-67
2022/09/18 10:10:51;;;;;;;;;;;13.90;99.90;;;;;;5055771;28;19931;-69
2022/09/18 10:13:19;;;;;;;;;;;14.00;99.90;;;;;;5056898;28;19924;-68
2022/09/18 10:15:46;;;;;;;;;;;13.90;99.90;;;;;;5072983;28;19923;-68
2022/09/18 10:18:15;;;;;;;;;;;14.20;99.90;;;;;;5080825;28;19944;-70
2022/09/18 10:20:42;;;;;;;;;;;14.20;99.90;;;;;;5073755;28;20018;-68
2022/09/18 10:23:15;;;;;;;;;;;14.30;99.90;;;;;;5091325;28;19942;-68
2022/09/18 10:25:47;;;;;;;;;;;14.30;99.90;;;;;;5093754;28;20206;-68
2022/09/18 10:28:13;;;;;;;;;;;14.50;99.90;;;;;;5087866;28;20366;-70
2022/09/18 10:31:17;;;;;;;;;;;14.70;99.90;;;;;;5092903;28;20144;-68
2022/09/18 10:33:44;;;;;;;;;;;14.80;99.90;;;;;;5025203;28;20506;-67
2022/09/18 10:36:15;;;;;;;;;;;15.20;99.90;;;;;;5013443;28;19921;-68
2022/09/18 10:38:41;;;;;;;;;;;15.40;99.90;;;;;;5056259;28;19923;-68
2022/09/18 10:41:22;;;;;;;;;;;15.50;99.90;;;;;;5073561;28;19924;-68
2022/09/18 10:44:08;;;;;;;;;;;15.70;99.90;;;;;;5075251;28;19923;-68
2022/09/18 10:46:35;;;;;;;;;;;15.60;99.90;;;;;;5080302;28;19969;-68
2022/09/18 10:49:16;;;;;;;;;;;15.50;99.90;;;;;;5092663;28;20307;-68
2022/09/18 10:51:42;;;;;;;;;;;15.20;99.90;;;;;;5092868;28;20443;-68
2022/09/18 10:54:18;;;;;;;;;;;15.40;99.90;;;;;;5092395;28;19930;-67
2022/09/18 10:56:44;;;;;;;;;;;15.80;99.90;;;;;;5091594;28;19919;-67
2022/09/18 10:59:28;;;;;;;;;;;15.80;99.90;;;;;;5091369;28;20274;-68
2022/09/18 11:01:58;;;;;;;;;;;15.80;99.90;;;;;;5093089;28;19924;-70
2022/09/18 11:04:26;;;;;;;;;;;15.90;99.90;;;;;;5092415;28;19927;-67
2022/09/18 11:06:52;;;;;;;;;;;16.10;99.90;;;;;;5092841;28;20256;-68
2022/09/18 11:09:18;;;;;;;;;;;16.00;99.90;;;;;;5092941;28;19946;-67
2022/09/18 11:11:50;;;;;;;;;;;16.00;99.90;;;;;;5085250;28;19927;-69
2022/09/18 11:14:17;;;;;;;;;;;16.20;99.90;;;;;;5078829;28;20018;-68
2022/09/18 11:16:46;;;;;;;;;;;16.00;99.90;;;;;;5093787;28;19931;-69
2022/09/18 11:19:26;;;;;;;;;;;15.80;99.90;;;;;;5095698;28;20134;-69
2022/09/18 11:21:55;;;;;;;;;;;16.10;99.90;;;;;;5077450;28;20325;-70
2022/09/18 11:24:23;;;;;;;;;;;16.30;99.90;;;;;;5080023;28;19969;-68
2022/09/18 11:26:49;;;;;;;;;;;15.80;99.90;;;;;;5073364;28;20317;-69
2022/09/18 11:29:15;;;;;;;;;;;15.90;99.90;;;;;;5072655;28;19927;-69
2022/09/18 11:31:42;;;;;;;;;;;15.70;99.90;;;;;;5089373;28;19966;-67
2022/09/18 11:34:29;;;;;;;;;;;15.70;99.90;;;;;;5090640;28;20403;-69
2022/09/18 11:36:59;;;;;;;;;;;15.80;99.90;;;;;;5090574;28;20306;-68
2022/09/18 11:39:27;;;;;;;;;;;15.20;99.90;;;;;;5073224;28;20337;-67
2022/09/18 11:41:53;;;;;;;;;;;14.90;99.90;;;;;;5069761;28;20216;-70
2022/09/18 11:44:23;;;;;;;;;;;15.00;99.90;;;;;;5081483;28;20304;-68
2022/09/18 11:46:48;;;;;;;;;;;15.40;99.90;;;;;;5080081;28;20429;-70
2022/09/18 11:49:17;;;;;;;;;;;16.30;99.90;;;;;;5090430;28;20566;-69
2022/09/18 11:51:56;;;;;;;;;;;17.00;99.90;;;;;;5089775;28;19926;-68
2022/09/18 11:54:41;;;;;;;;;;;17.60;99.90;;;;;;5088395;28;19924;-67
2022/09/18 11:57:15;;;;;;;;;;;17.50;99.90;;;;;;5076080;28;19931;-67
2022/09/18 11:59:43;;;;;;;;;;;16.70;99.90;;;;;;5074677;28;19923;-68
2022/09/18 12:02:19;;;;;;;;;;;16.70;99.90;;;;;;5079944;28;19931;-69
2022/09/18 12:05:04;;;;;;;;;;;17.00;99.90;;;;;;5070675;28;20406;-67
2022/09/18 12:07:34;;;;;;;;;;;17.60;99.90;;;;;;5092017;28;19927;-70
2022/09/18 12:10:18;;;;;;;;;;;17.90;99.90;;;;;;5093427;27;19966;-68
2022/09/18 12:13:04;;;;;;;;;;;18.10;99.90;;;;;;5091919;28;20201;-67
2022/09/18 12:15:33;;;;;;;;;;;17.70;98.20;;;;;;5070951;28;20198;-67
2022/09/18 12:18:15;;;;;;;;;;;18.40;99.90;;;;;;5073321;28;19947;-68
2022/09/18 12:20:45;;;;;;;;;;;19.10;99.90;;;;;;5073813;28;20436;-68
2022/09/18 12:23:13;;;;;;;;;;;18.30;96.70;;;;;;5091251;28;20605;-71
2022/09/18 12:25:41;;;;;;;;;;;18.10;94.60;;;;;;5082870;28;20415;-68
2022/09/18 12:28:15;;;;;;;;;;;18.00;97.20;;;;;;5073455;28;20002;-69
2022/09/18 12:30:49;;;;;;;;;;;18.00;97.70;;;;;;5074285;28;19981;-69
2022/09/18 12:33:26;;;;;;;;;;;17.90;96.70;;;;;;5073592;28;20276;-68
2022/09/18 12:36:04;;;;;;;;;;;17.90;97.30;;;;;;5072408;28;20478;-69
2022/09/18 12:38:38;;;;;;;;;;;17.80;95.40;;;;;;5072584;28;19932;-72
2022/09/18 12:41:09;;;;;;;;;;;17.50;93.80;;;;;;5081158;28;20243;-68
2022/09/18 12:43:59;;;;;;;;;;;17.10;99.20;;;;;;5091551;28;19930;-68
2022/09/18 12:46:31;;;;;;;;;;;16.10;99.90;;;;;;5076652;28;19920;-68
2022/09/18 12:49:06;;;;;;;;;;;15.20;99.90;;;;;;5072805;28;19924;-69
2022/09/18 12:51:40;;;;;;;;;;;15.90;99.90;;;;;;5072804;28;19934;-68
2022/09/18 12:54:41;;;;;;;;;;;16.60;99.90;;;;;;5073115;28;20056;-68
2022/09/18 12:57:10;;;;;;;;;;;17.20;99.80;;;;;;5009090;28;19925;-69
2022/09/18 12:59:42;;;;;;;;;;;17.70;97.80;;;;;;5059099;28;20395;-68
2022/09/18 13:02:27;;;;;;;;;;;17.50;96.90;;;;;;5073544;28;20031;-68
2022/09/18 13:05:00;;;;;;;;;;;17.20;92.50;;;;;;5071992;28;19934;-72
2022/09/18 13:07:27;;;;;;;;;;;16.90;99.90;;;;;;5072875;28;20256;-70
2022/09/18 13:09:58;;;;;;;;;;;16.20;99.90;;;;;;5072426;28;19930;-68
2022/09/18 13:12:29;;;;;;;;;;;15.30;99.90;;;;;;5072917;28;19996;-69
2022/09/18 13:14:59;;;;;;;;;;;14.70;99.90;;;;;;5071595;28;20363;-68
2022/09/18 13:17:29;;;;;;;;;;;14.90;99.90;;;;;;5070242;28;19955;-71
2022/09/18 13:19:58;;;;;;;;;;;15.60;99.90;;;;;;5073971;28;19928;-68
2022/09/18 13:22:25;;;;;;;;;;;15.90;99.90;;;;;;5073066;28;19920;-68
2022/09/18 13:24:51;;;;;;;;;;;16.80;99.90;;;;;;5070556;28;20420;-68
2022/09/18 13:27:18;;;;;;;;;;;17.20;96.70;;;;;;5072225;28;19920;-69
2022/09/18 13:29:49;;;;;;;;;;;17.30;92.10;;;;;;5072429;28;20720;-70
2022/09/18 13:32:21;;;;;;;;;;;17.80;90.50;;;;;;5072052;28;19924;-68
2022/09/18 13:34:50;;;;;;;;;;;18.40;91.70;;;;;;5070911;28;19930;-68
2022/09/18 13:37:18;;;;;;;;;;;18.10;89.80;;;;;;5072046;28;19954;-69
2022/09/18 13:40:07;;;;;;;;;;;17.90;84.90;;;;;;5072001;28;19924;-68
2022/09/18 13:42:34;;;;;;;;;;;17.80;85.10;;;;;;5071886;28;20301;-69
2022/09/18 13:45:05;;;;;;;;;;;16.60;88.40;;;;;;5070636;28;20198;-68
2022/09/18 13:47:32;;;;;;;;;;;16.50;84.30;;;;;;5070172;28;20181;-69
2022/09/18 13:49:59;;;;;;;;;;;17.00;81.10;;;;;;5072066;28;19928;-69
2022/09/18 13:52:34;;;;;;;;;;;17.70;79.00;;;;;;5070426;28;20436;-69
2022/09/18 13:55:11;;;;;;;;;;;17.60;66.60;;;;;;5072166;28;20195;-67
2022/09/18 13:57:37;;;;;;;;;;;18.10;68.40;;;;;;5070859;28;20459;-69
2022/09/18 14:00:19;;;;;;;;;;;17.80;69.00;;;;;;5091197;28;19924;-67
2022/09/18 14:02:48;;;;;;;;;;;18.50;65.30;;;;;;5091118;28;20383;-71
2022/09/18 14:05:20;;;;;;;;;;;17.80;64.20;;;;;;5090307;28;19930;-68
2022/09/18 14:07:52;;;;;;;;;;;18.20;69.60;;;;;;5091046;28;19946;-70
2022/09/18 14:10:26;;;;;;;;;;;16.90;94.80;;;;;;5089138;28;20501;-69
2022/09/18 14:13:11;;;;;;;;;;;16.10;94.00;;;;;;5091258;28;19924;-68
2022/09/18 14:15:36;;;;;;;;;;;15.20;99.90;;;;;;5090490;28;20333;-68
2022/09/18 14:18:05;;;;;;;;;;;15.30;99.90;;;;;;5087012;28;19972;-69
2022/09/18 14:20:31;;;;;;;;;;;16.30;99.90;;;;;;5069188;28;20509;-68
2022/09/18 14:23:17;;;;;;;;;;;17.00;98.70;;;;;;5071427;28;20003;-68
2022/09/18 14:25:44;;;;;;;;;;;17.60;98.70;;;;;;5068902;28;19931;-67
2022/09/18 14:28:10;;;;;;;;;;;18.40;95.20;;;;;;5068858;28;20227;-68